18TE weather

Alert Field
Big Sandy, Texas, United States

Public forecast

Using degrees Fahrenheit for public forecast. Weather courtesy of forecast.io.

Closest aviation weather report (METAR) to Alert Field

Closest report is Fox Stephens Field Gilmer Municipal Airport, 9.0 nm (16.6 km) NE. Retrieved 2019/10/14 16:35 UTC (17 minutes ago):

KJXI 141635Z AUTO 16004KT 10SM -DZ OVC043 17/13 A3006 RMK AO2 T01730131

Closest aviation forecast (TAF) to Alert Field

Closest forecast is East Texas Regional Airport, 21.6 nm (39.9 km) SE. Retrieved 2019/10/14 12:30 UTC (4 hours ago):

TAF KGGG 141128Z 1412/1512 07003KT P6SM VCSH BKN250 FM141500 13006KT P6SM VCSH BKN025 OVC050 FM142100 13007KT P6SM VCSH BKN030 BKN090 OVC120 FM150000 12005KT 6SM -RA BR OVC010 FM150600 15008KT 6SM -RA BR VCTS OVC010CB FM151000 17005KT 6SM -RA BR OVC010